Airfield :
LOGIN :

Register | Disclaimer

   EN    FR    IT 

 










Legend :    VFR   Marginal VFR   IFR   Intensive IFR   Very Intensive IFR
Visi :
Ceiling :
>= 8 km
>= 3000ft
5 to 8 km
1000 to 3000 ft
1500m to 5 km
500 to 1000 ft
800 to 1500m
200 to 500 ft
< 800m
< 200 ft
Symbols :   Thunderstorms  Fog  Heavy snow  Heavy precipitations  Wind > 20 kt
SIGMETs :     Misc.  Thunderstorms  Icing  Turbulence  Mountain Waves  Volcanic Ashes







- Airport Elevation : 2026 ft
- IATA code : TOJ


LETO - Madrid Torrejon

CURRENT METAR :
  • 152200Z VRB02KT CAVOK 27/08 Q1016 NOSIG

EXPIRED METARs :
  • 152100Z 02004KT CAVOK 26/08 Q1015 NOSIG
  • 152000Z 26003KT CAVOK 28/08 Q1015 NOSIG

TAF TAF LETO
Valid from the 15 at 18:00 until the 16 at 18:00 UTC


151700Z 1518/1618 VRB05KT 9999 FEW045 TX34/1614Z TN19/1606Z
PROB30
TEMPO 1518/1520 FEW045TCU
PROB30
TEMPO 1522/1601 15012KT
TEMPO 1610/1618 FEW040TCU
PROB40
TEMPO 1612/1618 VRB15G25KT SHRA SCT040TCU
PROB30
TEMPO 1614/1618 TS SCT040CB
No reported NOTAMs for that airfield.
1 SIGMET reported for the Madrid FIR (LECM) :
 
Embedded thunderstorms
LECM SIGMET 6 VALID 152200/160000 LEVA
LECM MADRID FIR/UIR EMBD TS OBS AT 2156Z WI N3954 W00338 - N4108 W00245 - N4050 W00044 - N3823 W00126 - N3833 W00301 - N3954 W00338 TOP FL420 STNR NC=



MET'MAP, your aeronautical weather chart ! - Copyright ORBIFLY December 2007 - Disclaimer

ORBIFLY MET'MAP TEAM :

Programming & Development : Alexandra Zaïnal
Concept & Development : Baudouin d'Aumeries
Co-Development & Prog : Marc-Olivier Méhu
Technical & hardware support : Manuel Goepfert

Contact : metmap@orbifly.com




SOURCES & CREDITS :

   NOAA